sensor_id;sensor_type;location;lat;lon;timestamp;temperature;humidity
64685;DHT22;51109;47.414;18.954;2022-08-19T00:01:39;26.70;99.00
64685;DHT22;51109;47.414;18.954;2022-08-19T00:04:09;26.70;99.30
64685;DHT22;51109;47.414;18.954;2022-08-19T00:06:36;26.70;99.10
64685;DHT22;51109;47.414;18.954;2022-08-19T00:09:04;27.00;99.20
64685;DHT22;51109;47.414;18.954;2022-08-19T00:11:31;26.90;98.90
64685;DHT22;51109;47.414;18.954;2022-08-19T00:13:57;26.90;99.00
64685;DHT22;51109;47.414;18.954;2022-08-19T00:16:24;27.00;99.10
64685;DHT22;51109;47.414;18.954;2022-08-19T00:18:51;27.00;99.10
64685;DHT22;51109;47.414;18.954;2022-08-19T00:21:17;26.90;99.20
64685;DHT22;51109;47.414;18.954;2022-08-19T00:23:43;26.80;99.40
64685;DHT22;51109;47.414;18.954;2022-08-19T00:26:10;26.60;99.80
64685;DHT22;51109;47.414;18.954;2022-08-19T00:28:36;26.40;99.90
64685;DHT22;51109;47.414;18.954;2022-08-19T00:31:04;26.40;99.90
64685;DHT22;51109;47.414;18.954;2022-08-19T00:33:30;26.40;99.90
64685;DHT22;51109;47.414;18.954;2022-08-19T00:36:00;26.30;99.90
64685;DHT22;51109;47.414;18.954;2022-08-19T00:38:27;26.30;99.90
64685;DHT22;51109;47.414;18.954;2022-08-19T00:40:53;26.20;99.90
64685;DHT22;51109;47.414;18.954;2022-08-19T00:43:23;26.20;99.90
64685;DHT22;51109;47.414;18.954;2022-08-19T00:45:49;26.20;99.90
64685;DHT22;51109;47.414;18.954;2022-08-19T00:48:17;26.30;99.90
64685;DHT22;51109;47.414;18.954;2022-08-19T00:50:44;26.30;99.90
64685;DHT22;51109;47.414;18.954;2022-08-19T00:53:12;26.30;99.90
64685;DHT22;51109;47.414;18.954;2022-08-19T00:55:46;26.40;99.90
64685;DHT22;51109;47.414;18.954;2022-08-19T00:58:18;26.40;99.90
64685;DHT22;51109;47.414;18.954;2022-08-19T01:00:45;26.40;99.90
64685;DHT22;51109;47.414;18.954;2022-08-19T01:03:15;26.50;99.90
64685;DHT22;51109;47.414;18.954;2022-08-19T01:05:42;26.40;99.90
64685;DHT22;51109;47.414;18.954;2022-08-19T01:08:09;26.50;99.90
64685;DHT22;51109;47.414;18.954;2022-08-19T01:10:45;26.50;99.90
64685;DHT22;51109;47.414;18.954;2022-08-19T01:13:15;26.70;99.90
64685;DHT22;51109;47.414;18.954;2022-08-19T01:16:00;26.60;99.90
64685;DHT22;51109;47.414;18.954;2022-08-19T01:18:27;26.50;99.90
64685;DHT22;51109;47.414;18.954;2022-08-19T01:20:57;26.30;99.90
64685;DHT22;51109;47.414;18.954;2022-08-19T01:23:24;26.40;99.90
64685;DHT22;51109;47.414;18.954;2022-08-19T01:26:13;26.50;99.90
64685;DHT22;51109;47.414;18.954;2022-08-19T01:28:40;26.50;99.90
64685;DHT22;51109;47.414;18.954;2022-08-19T01:31:10;26.40;99.90
64685;DHT22;51109;47.414;18.954;2022-08-19T01:33:37;26.30;99.90
64685;DHT22;51109;47.414;18.954;2022-08-19T01:36:06;26.30;99.90
64685;DHT22;51109;47.414;18.954;2022-08-19T01:38:37;26.20;99.90
64685;DHT22;51109;47.414;18.954;2022-08-19T01:41:04;26.30;99.90
64685;DHT22;51109;47.414;18.954;2022-08-19T01:43:30;26.40;99.90
64685;DHT22;51109;47.414;18.954;2022-08-19T01:45:56;26.40;99.90
64685;DHT22;51109;47.414;18.954;2022-08-19T01:48:21;26.30;99.90
64685;DHT22;51109;47.414;18.954;2022-08-19T01:50:48;26.30;99.90
64685;DHT22;51109;47.414;18.954;2022-08-19T01:53:14;26.20;99.90
64685;DHT22;51109;47.414;18.954;2022-08-19T01:55:42;26.00;99.90
64685;DHT22;51109;47.414;18.954;2022-08-19T01:58:17;26.00;99.90
64685;DHT22;51109;47.414;18.954;2022-08-19T02:00:44;26.00;99.90
64685;DHT22;51109;47.414;18.954;2022-08-19T02:03:10;25.90;99.90
64685;DHT22;51109;47.414;18.954;2022-08-19T02:05:44;25.80;99.90
64685;DHT22;51109;47.414;18.954;2022-08-19T02:08:12;25.80;99.90
64685;DHT22;51109;47.414;18.954;2022-08-19T02:10:42;25.80;99.90
64685;DHT22;51109;47.414;18.954;2022-08-19T02:13:09;25.80;99.90
64685;DHT22;51109;47.414;18.954;2022-08-19T02:15:35;25.70;99.90
64685;DHT22;51109;47.414;18.954;2022-08-19T02:18:01;25.70;99.90
64685;DHT22;51109;47.414;18.954;2022-08-19T02:20:27;25.80;99.90
64685;DHT22;51109;47.414;18.954;2022-08-19T02:22:53;25.80;99.90
64685;DHT22;51109;47.414;18.954;2022-08-19T02:25:19;25.80;99.90
64685;DHT22;51109;47.414;18.954;2022-08-19T02:27:45;25.60;99.90
64685;DHT22;51109;47.414;18.954;2022-08-19T02:30:14;25.50;99.90
64685;DHT22;51109;47.414;18.954;2022-08-19T02:32:42;25.60;99.90
64685;DHT22;51109;47.414;18.954;2022-08-19T02:35:08;25.60;99.90
64685;DHT22;51109;47.414;18.954;2022-08-19T02:37:34;25.60;99.90
64685;DHT22;51109;47.414;18.954;2022-08-19T02:40:19;25.50;99.90
64685;DHT22;51109;47.414;18.954;2022-08-19T02:42:45;25.60;99.90
64685;DHT22;51109;47.414;18.954;2022-08-19T02:45:12;25.70;99.90
64685;DHT22;51109;47.414;18.954;2022-08-19T02:47:39;25.70;99.90
64685;DHT22;51109;47.414;18.954;2022-08-19T02:50:05;25.70;99.90
64685;DHT22;51109;47.414;18.954;2022-08-19T02:52:32;25.70;99.90
64685;DHT22;51109;47.414;18.954;2022-08-19T02:54:59;25.80;99.90
64685;DHT22;51109;47.414;18.954;2022-08-19T02:57:25;25.90;99.90
64685;DHT22;51109;47.414;18.954;2022-08-19T02:59:52;25.90;99.90
64685;DHT22;51109;47.414;18.954;2022-08-19T03:02:18;26.00;99.90
64685;DHT22;51109;47.414;18.954;2022-08-19T03:04:44;25.90;99.90
64685;DHT22;51109;47.414;18.954;2022-08-19T03:07:14;25.80;99.90
64685;DHT22;51109;47.414;18.954;2022-08-19T03:09:40;25.80;99.90
64685;DHT22;51109;47.414;18.954;2022-08-19T03:12:08;25.80;99.90
64685;DHT22;51109;47.414;18.954;2022-08-19T03:14:35;25.80;99.90
64685;DHT22;51109;47.414;18.954;2022-08-19T03:17:02;25.80;99.90
64685;DHT22;51109;47.414;18.954;2022-08-19T03:19:28;25.80;99.90
64685;DHT22;51109;47.414;18.954;2022-08-19T03:21:54;25.70;99.90
64685;DHT22;51109;47.414;18.954;2022-08-19T03:24:21;25.80;99.90
64685;DHT22;51109;47.414;18.954;2022-08-19T03:26:53;25.80;99.90
64685;DHT22;51109;47.414;18.954;2022-08-19T03:29:23;25.70;99.90
64685;DHT22;51109;47.414;18.954;2022-08-19T03:31:49;25.70;99.90
64685;DHT22;51109;47.414;18.954;2022-08-19T03:34:36;25.50;99.90
64685;DHT22;51109;47.414;18.954;2022-08-19T03:37:06;25.60;99.90
64685;DHT22;51109;47.414;18.954;2022-08-19T03:39:33;25.60;99.90
64685;DHT22;51109;47.414;18.954;2022-08-19T03:41:59;25.40;99.90
64685;DHT22;51109;47.414;18.954;2022-08-19T03:44:29;25.30;99.90
64685;DHT22;51109;47.414;18.954;2022-08-19T03:46:58;25.40;99.90
64685;DHT22;51109;47.414;18.954;2022-08-19T03:49:27;25.40;99.90
64685;DHT22;51109;47.414;18.954;2022-08-19T03:51:55;25.50;99.90
64685;DHT22;51109;47.414;18.954;2022-08-19T03:54:23;25.50;99.90
64685;DHT22;51109;47.414;18.954;2022-08-19T03:56:50;25.60;99.90
64685;DHT22;51109;47.414;18.954;2022-08-19T03:59:29;25.50;99.90
64685;DHT22;51109;47.414;18.954;2022-08-19T04:01:58;25.50;99.90
64685;DHT22;51109;47.414;18.954;2022-08-19T04:04:25;25.50;99.90
64685;DHT22;51109;47.414;18.954;2022-08-19T04:06:51;25.50;99.90
64685;DHT22;51109;47.414;18.954;2022-08-19T04:09:19;25.60;99.90
64685;DHT22;51109;47.414;18.954;2022-08-19T04:11:50;25.60;99.90
64685;DHT22;51109;47.414;18.954;2022-08-19T04:14:22;25.60;99.90
64685;DHT22;51109;47.414;18.954;2022-08-19T04:16:48;25.60;99.90
64685;DHT22;51109;47.414;18.954;2022-08-19T04:19:16;25.60;99.90
64685;DHT22;51109;47.414;18.954;2022-08-19T04:21:48;25.60;99.90
64685;DHT22;51109;47.414;18.954;2022-08-19T04:24:14;25.70;99.90
64685;DHT22;51109;47.414;18.954;2022-08-19T04:26:41;25.60;99.90
64685;DHT22;51109;47.414;18.954;2022-08-19T04:29:10;25.60;99.90
64685;DHT22;51109;47.414;18.954;2022-08-19T04:31:36;25.60;99.90
64685;DHT22;51109;47.414;18.954;2022-08-19T04:34:07;25.70;99.90
64685;DHT22;51109;47.414;18.954;2022-08-19T04:36:35;25.60;99.90
64685;DHT22;51109;47.414;18.954;2022-08-19T04:39:07;25.50;99.90
64685;DHT22;51109;47.414;18.954;2022-08-19T04:41:34;25.50;99.90
64685;DHT22;51109;47.414;18.954;2022-08-19T04:44:19;25.50;99.90
64685;DHT22;51109;47.414;18.954;2022-08-19T04:46:47;25.40;99.90
64685;DHT22;51109;47.414;18.954;2022-08-19T04:49:15;25.20;99.90
64685;DHT22;51109;47.414;18.954;2022-08-19T04:51:44;25.10;99.90
64685;DHT22;51109;47.414;18.954;2022-08-19T04:54:11;25.20;99.90
64685;DHT22;51109;47.414;18.954;2022-08-19T04:56:39;25.30;99.90
64685;DHT22;51109;47.414;18.954;2022-08-19T04:59:05;25.40;99.90
64685;DHT22;51109;47.414;18.954;2022-08-19T05:01:32;25.40;99.90
64685;DHT22;51109;47.414;18.954;2022-08-19T05:04:00;25.50;99.90
64685;DHT22;51109;47.414;18.954;2022-08-19T05:06:27;25.50;99.90
64685;DHT22;51109;47.414;18.954;2022-08-19T05:08:54;25.50;99.90
64685;DHT22;51109;47.414;18.954;2022-08-19T05:11:26;25.50;99.90
64685;DHT22;51109;47.414;18.954;2022-08-19T05:13:52;25.60;99.90
64685;DHT22;51109;47.414;18.954;2022-08-19T05:16:19;25.60;99.90
64685;DHT22;51109;47.414;18.954;2022-08-19T05:18:46;25.60;99.90
64685;DHT22;51109;47.414;18.954;2022-08-19T05:21:32;25.70;99.90
64685;DHT22;51109;47.414;18.954;2022-08-19T05:24:17;25.70;99.90
64685;DHT22;51109;47.414;18.954;2022-08-19T05:26:46;25.90;99.90
64685;DHT22;51109;47.414;18.954;2022-08-19T05:29:15;26.00;99.90
64685;DHT22;51109;47.414;18.954;2022-08-19T05:31:42;26.00;99.90
64685;DHT22;51109;47.414;18.954;2022-08-19T05:34:09;26.00;99.90
64685;DHT22;51109;47.414;18.954;2022-08-19T05:36:40;26.10;99.90
64685;DHT22;51109;47.414;18.954;2022-08-19T05:39:09;26.20;99.90
64685;DHT22;51109;47.414;18.954;2022-08-19T05:41:51;26.30;99.90
64685;DHT22;51109;47.414;18.954;2022-08-19T05:44:18;26.30;99.90
64685;DHT22;51109;47.414;18.954;2022-08-19T05:46:45;26.40;99.90
64685;DHT22;51109;47.414;18.954;2022-08-19T05:49:13;26.40;99.90
64685;DHT22;51109;47.414;18.954;2022-08-19T05:51:39;26.40;99.90
64685;DHT22;51109;47.414;18.954;2022-08-19T05:54:06;26.50;99.90
64685;DHT22;51109;47.414;18.954;2022-08-19T05:56:33;26.50;99.90
64685;DHT22;51109;47.414;18.954;2022-08-19T05:59:02;26.70;99.90
64685;DHT22;51109;47.414;18.954;2022-08-19T06:01:29;26.80;99.90
64685;DHT22;51109;47.414;18.954;2022-08-19T06:03:55;26.80;99.90
64685;DHT22;51109;47.414;18.954;2022-08-19T06:06:21;26.90;99.90
64685;DHT22;51109;47.414;18.954;2022-08-19T06:08:47;27.10;99.90
64685;DHT22;51109;47.414;18.954;2022-08-19T06:11:25;27.10;99.90
64685;DHT22;51109;47.414;18.954;2022-08-19T06:14:02;27.20;99.90
64685;DHT22;51109;47.414;18.954;2022-08-19T06:16:28;27.30;99.90
64685;DHT22;51109;47.414;18.954;2022-08-19T06:18:59;27.40;99.90
64685;DHT22;51109;47.414;18.954;2022-08-19T06:21:27;27.40;99.90
64685;DHT22;51109;47.414;18.954;2022-08-19T06:23:54;27.50;99.90
64685;DHT22;51109;47.414;18.954;2022-08-19T06:26:21;27.70;99.90
64685;DHT22;51109;47.414;18.954;2022-08-19T06:28:48;27.60;99.90
64685;DHT22;51109;47.414;18.954;2022-08-19T06:31:20;27.60;99.90
64685;DHT22;51109;47.414;18.954;2022-08-19T06:33:47;27.70;99.90
64685;DHT22;51109;47.414;18.954;2022-08-19T06:36:28;27.80;99.90
64685;DHT22;51109;47.414;18.954;2022-08-19T06:38:58;27.90;99.90
64685;DHT22;51109;47.414;18.954;2022-08-19T06:41:25;28.10;99.90
64685;DHT22;51109;47.414;18.954;2022-08-19T06:43:52;28.30;99.90
64685;DHT22;51109;47.414;18.954;2022-08-19T06:46:18;28.30;99.90
64685;DHT22;51109;47.414;18.954;2022-08-19T06:48:46;28.30;99.90
64685;DHT22;51109;47.414;18.954;2022-08-19T06:51:17;28.40;99.90
64685;DHT22;51109;47.414;18.954;2022-08-19T06:53:51;28.40;99.90
64685;DHT22;51109;47.414;18.954;2022-08-19T06:56:19;28.50;99.90
64685;DHT22;51109;47.414;18.954;2022-08-19T06:58:47;28.50;99.90
64685;DHT22;51109;47.414;18.954;2022-08-19T07:01:16;28.70;99.90
64685;DHT22;51109;47.414;18.954;2022-08-19T07:03:41;28.80;99.90
64685;DHT22;51109;47.414;18.954;2022-08-19T07:06:12;28.90;99.90
64685;DHT22;51109;47.414;18.954;2022-08-19T07:08:40;29.00;99.90
64685;DHT22;51109;47.414;18.954;2022-08-19T07:11:09;29.00;99.90
64685;DHT22;51109;47.414;18.954;2022-08-19T07:13:37;29.20;99.90
64685;DHT22;51109;47.414;18.954;2022-08-19T07:16:08;29.40;99.90
64685;DHT22;51109;47.414;18.954;2022-08-19T07:18:35;29.50;99.90
64685;DHT22;51109;47.414;18.954;2022-08-19T07:21:14;29.80;99.90
64685;DHT22;51109;47.414;18.954;2022-08-19T07:23:45;30.00;99.90
64685;DHT22;51109;47.414;18.954;2022-08-19T07:26:32;30.10;99.90
64685;DHT22;51109;47.414;18.954;2022-08-19T07:28:59;30.40;99.90
64685;DHT22;51109;47.414;18.954;2022-08-19T07:31:27;30.40;98.60
64685;DHT22;51109;47.414;18.954;2022-08-19T07:33:55;30.50;98.40
64685;DHT22;51109;47.414;18.954;2022-08-19T07:36:24;30.50;98.20
64685;DHT22;51109;47.414;18.954;2022-08-19T07:38:51;30.70;98.70
64685;DHT22;51109;47.414;18.954;2022-08-19T07:41:23;30.60;97.60
64685;DHT22;51109;47.414;18.954;2022-08-19T07:43:50;30.80;98.20
64685;DHT22;51109;47.414;18.954;2022-08-19T07:46:17;30.90;98.30
64685;DHT22;51109;47.414;18.954;2022-08-19T07:48:44;31.20;97.70
64685;DHT22;51109;47.414;18.954;2022-08-19T07:51:19;31.30;96.60
64685;DHT22;51109;47.414;18.954;2022-08-19T07:53:47;31.50;96.80
64685;DHT22;51109;47.414;18.954;2022-08-19T07:56:14;31.60;96.80
64685;DHT22;51109;47.414;18.954;2022-08-19T07:58:44;31.70;96.20
64685;DHT22;51109;47.414;18.954;2022-08-19T08:01:13;31.60;96.00
64685;DHT22;51109;47.414;18.954;2022-08-19T08:03:39;31.50;96.00
64685;DHT22;51109;47.414;18.954;2022-08-19T08:06:24;31.50;96.30
64685;DHT22;51109;47.414;18.954;2022-08-19T08:09:11;31.50;95.40
64685;DHT22;51109;47.414;18.954;2022-08-19T08:11:48;31.50;96.20
64685;DHT22;51109;47.414;18.954;2022-08-19T08:14:23;31.50;96.20
64685;DHT22;51109;47.414;18.954;2022-08-19T08:16:50;31.60;95.00
64685;DHT22;51109;47.414;18.954;2022-08-19T08:19:18;31.70;95.50
64685;DHT22;51109;47.414;18.954;2022-08-19T08:21:45;31.90;94.60
64685;DHT22;51109;47.414;18.954;2022-08-19T08:24:11;32.10;96.30
64685;DHT22;51109;47.414;18.954;2022-08-19T08:26:38;32.20;94.10
64685;DHT22;51109;47.414;18.954;2022-08-19T08:29:04;32.40;94.50
64685;DHT22;51109;47.414;18.954;2022-08-19T08:31:30;32.60;94.50
64685;DHT22;51109;47.414;18.954;2022-08-19T08:33:56;32.70;94.70
64685;DHT22;51109;47.414;18.954;2022-08-19T08:36:22;32.60;94.10
64685;DHT22;51109;47.414;18.954;2022-08-19T08:38:50;32.70;93.00
64685;DHT22;51109;47.414;18.954;2022-08-19T08:41:36;32.70;92.70
64685;DHT22;51109;47.414;18.954;2022-08-19T08:44:06;32.70;92.10
64685;DHT22;51109;47.414;18.954;2022-08-19T08:46:47;32.90;92.60
64685;DHT22;51109;47.414;18.954;2022-08-19T08:49:31;32.80;91.60
64685;DHT22;51109;47.414;18.954;2022-08-19T08:52:05;32.80;92.30
64685;DHT22;51109;47.414;18.954;2022-08-19T08:54:39;32.60;91.20
64685;DHT22;51109;47.414;18.954;2022-08-19T08:57:29;32.80;92.90
64685;DHT22;51109;47.414;18.954;2022-08-19T08:59:59;32.90;92.30
64685;DHT22;51109;47.414;18.954;2022-08-19T09:02:26;33.10;92.00
64685;DHT22;51109;47.414;18.954;2022-08-19T09:04:54;33.20;91.40
64685;DHT22;51109;47.414;18.954;2022-08-19T09:10:14;33.70;91.80
64685;DHT22;51109;47.414;18.954;2022-08-19T09:12:57;33.80;91.40
64685;DHT22;51109;47.414;18.954;2022-08-19T09:15:36;33.50;90.20
64685;DHT22;51109;47.414;18.954;2022-08-19T09:18:04;33.40;91.70
64685;DHT22;51109;47.414;18.954;2022-08-19T09:20:32;33.50;91.10
64685;DHT22;51109;47.414;18.954;2022-08-19T09:22:58;33.60;90.20
64685;DHT22;51109;47.414;18.954;2022-08-19T09:25:24;33.80;90.80
64685;DHT22;51109;47.414;18.954;2022-08-19T09:27:51;33.90;90.30
64685;DHT22;51109;47.414;18.954;2022-08-19T09:30:26;33.90;90.10
64685;DHT22;51109;47.414;18.954;2022-08-19T09:32:53;33.80;91.50
64685;DHT22;51109;47.414;18.954;2022-08-19T09:35:22;33.80;91.10
64685;DHT22;51109;47.414;18.954;2022-08-19T09:37:49;33.90;90.90
64685;DHT22;51109;47.414;18.954;2022-08-19T09:40:16;34.10;91.10
64685;DHT22;51109;47.414;18.954;2022-08-19T09:42:46;34.40;90.60
64685;DHT22;51109;47.414;18.954;2022-08-19T09:45:14;34.60;89.30
64685;DHT22;51109;47.414;18.954;2022-08-19T09:47:40;34.60;90.30
64685;DHT22;51109;47.414;18.954;2022-08-19T09:50:09;34.40;90.30
64685;DHT22;51109;47.414;18.954;2022-08-19T09:52:36;34.20;90.00
64685;DHT22;51109;47.414;18.954;2022-08-19T09:55:07;34.20;90.50
64685;DHT22;51109;47.414;18.954;2022-08-19T09:57:33;34.00;90.70
64685;DHT22;51109;47.414;18.954;2022-08-19T09:59:59;33.90;89.80
64685;DHT22;51109;47.414;18.954;2022-08-19T10:02:25;33.90;90.30
64685;DHT22;51109;47.414;18.954;2022-08-19T10:04:51;33.90;90.70
64685;DHT22;51109;47.414;18.954;2022-08-19T10:07:37;34.00;90.80
64685;DHT22;51109;47.414;18.954;2022-08-19T10:10:04;34.00;90.10
64685;DHT22;51109;47.414;18.954;2022-08-19T10:12:32;34.20;88.70
64685;DHT22;51109;47.414;18.954;2022-08-19T10:14:59;34.20;89.00
64685;DHT22;51109;47.414;18.954;2022-08-19T10:17:26;34.40;88.50
64685;DHT22;51109;47.414;18.954;2022-08-19T10:19:52;34.50;88.10
64685;DHT22;51109;47.414;18.954;2022-08-19T10:22:18;34.50;89.50
64685;DHT22;51109;47.414;18.954;2022-08-19T10:24:46;34.50;87.00
64685;DHT22;51109;47.414;18.954;2022-08-19T10:27:12;34.60;85.90
64685;DHT22;51109;47.414;18.954;2022-08-19T10:29:40;34.60;85.00
64685;DHT22;51109;47.414;18.954;2022-08-19T10:32:07;34.70;85.60
64685;DHT22;51109;47.414;18.954;2022-08-19T10:34:36;35.00;84.90
64685;DHT22;51109;47.414;18.954;2022-08-19T10:37:03;35.20;83.80
64685;DHT22;51109;47.414;18.954;2022-08-19T10:39:35;35.20;83.40
64685;DHT22;51109;47.414;18.954;2022-08-19T10:42:06;35.20;85.40
64685;DHT22;51109;47.414;18.954;2022-08-19T10:44:33;35.20;84.00
64685;DHT22;51109;47.414;18.954;2022-08-19T10:47:01;35.30;81.70
64685;DHT22;51109;47.414;18.954;2022-08-19T10:49:27;35.40;81.80
64685;DHT22;51109;47.414;18.954;2022-08-19T10:51:54;35.60;80.60
64685;DHT22;51109;47.414;18.954;2022-08-19T10:54:38;35.70;81.00
64685;DHT22;51109;47.414;18.954;2022-08-19T10:57:23;35.90;82.10
64685;DHT22;51109;47.414;18.954;2022-08-19T10:59:55;35.90;81.50
64685;DHT22;51109;47.414;18.954;2022-08-19T11:02:21;35.90;82.00
64685;DHT22;51109;47.414;18.954;2022-08-19T11:04:47;36.00;80.10
64685;DHT22;51109;47.414;18.954;2022-08-19T11:07:15;36.30;81.20
64685;DHT22;51109;47.414;18.954;2022-08-19T11:09:42;36.30;81.20
64685;DHT22;51109;47.414;18.954;2022-08-19T11:12:09;36.50;80.60
64685;DHT22;51109;47.414;18.954;2022-08-19T11:14:36;36.60;78.20
64685;DHT22;51109;47.414;18.954;2022-08-19T11:17:04;36.50;77.30
64685;DHT22;51109;47.414;18.954;2022-08-19T11:19:31;36.40;76.50
64685;DHT22;51109;47.414;18.954;2022-08-19T11:21:57;36.50;77.70
64685;DHT22;51109;47.414;18.954;2022-08-19T11:24:27;36.60;76.60
64685;DHT22;51109;47.414;18.954;2022-08-19T11:27:00;36.60;78.10
64685;DHT22;51109;47.414;18.954;2022-08-19T11:29:27;36.60;78.50
64685;DHT22;51109;47.414;18.954;2022-08-19T11:31:54;36.60;76.30
64685;DHT22;51109;47.414;18.954;2022-08-19T11:34:23;36.50;78.80
64685;DHT22;51109;47.414;18.954;2022-08-19T11:36:51;36.50;76.80
64685;DHT22;51109;47.414;18.954;2022-08-19T11:39:19;36.50;77.10
64685;DHT22;51109;47.414;18.954;2022-08-19T11:41:46;36.60;78.50
64685;DHT22;51109;47.414;18.954;2022-08-19T11:44:12;36.80;80.60
64685;DHT22;51109;47.414;18.954;2022-08-19T11:46:40;36.80;77.00
64685;DHT22;51109;47.414;18.954;2022-08-19T11:49:07;37.00;76.30
64685;DHT22;51109;47.414;18.954;2022-08-19T11:51:35;36.90;77.50
64685;DHT22;51109;47.414;18.954;2022-08-19T11:54:01;36.70;77.60
64685;DHT22;51109;47.414;18.954;2022-08-19T11:56:27;36.60;76.20
64685;DHT22;51109;47.414;18.954;2022-08-19T11:58:55;36.50;75.90
64685;DHT22;51109;47.414;18.954;2022-08-19T12:01:24;36.30;77.30
64685;DHT22;51109;47.414;18.954;2022-08-19T12:03:51;36.30;75.90
64685;DHT22;51109;47.414;18.954;2022-08-19T12:06:24;36.30;76.90
64685;DHT22;51109;47.414;18.954;2022-08-19T12:08:51;36.40;78.20
64685;DHT22;51109;47.414;18.954;2022-08-19T12:11:17;36.40;76.30
64685;DHT22;51109;47.414;18.954;2022-08-19T12:13:43;36.30;75.90
64685;DHT22;51109;47.414;18.954;2022-08-19T12:16:19;36.20;75.60
64685;DHT22;51109;47.414;18.954;2022-08-19T12:18:45;36.20;75.20
64685;DHT22;51109;47.414;18.954;2022-08-19T12:21:13;36.20;74.90
64685;DHT22;51109;47.414;18.954;2022-08-19T12:23:41;36.30;75.70
64685;DHT22;51109;47.414;18.954;2022-08-19T12:26:09;36.30;74.70
64685;DHT22;51109;47.414;18.954;2022-08-19T12:28:36;36.30;75.90
64685;DHT22;51109;47.414;18.954;2022-08-19T12:31:02;36.20;74.10
64685;DHT22;51109;47.414;18.954;2022-08-19T12:33:28;36.10;76.20
64685;DHT22;51109;47.414;18.954;2022-08-19T12:35:54;36.10;75.00
64685;DHT22;51109;47.414;18.954;2022-08-19T12:38:25;36.00;74.40
64685;DHT22;51109;47.414;18.954;2022-08-19T12:40:51;36.10;74.40
64685;DHT22;51109;47.414;18.954;2022-08-19T12:43:19;36.20;75.30
64685;DHT22;51109;47.414;18.954;2022-08-19T12:45:46;36.30;75.30
64685;DHT22;51109;47.414;18.954;2022-08-19T12:48:12;36.30;76.10
64685;DHT22;51109;47.414;18.954;2022-08-19T12:50:40;36.50;75.60
64685;DHT22;51109;47.414;18.954;2022-08-19T12:53:06;36.60;73.40
64685;DHT22;51109;47.414;18.954;2022-08-19T12:55:32;36.70;74.00
64685;DHT22;51109;47.414;18.954;2022-08-19T12:57:58;36.80;74.00
64685;DHT22;51109;47.414;18.954;2022-08-19T13:00:27;37.00;73.50
64685;DHT22;51109;47.414;18.954;2022-08-19T13:02:53;37.20;73.20
64685;DHT22;51109;47.414;18.954;2022-08-19T13:05:25;37.30;73.60
64685;DHT22;51109;47.414;18.954;2022-08-19T13:07:53;37.40;71.40
64685;DHT22;51109;47.414;18.954;2022-08-19T13:10:22;37.40;73.70
64685;DHT22;51109;47.414;18.954;2022-08-19T13:12:49;37.30;72.60
64685;DHT22;51109;47.414;18.954;2022-08-19T13:15:17;37.10;71.70
64685;DHT22;51109;47.414;18.954;2022-08-19T13:17:51;36.80;73.00
64685;DHT22;51109;47.414;18.954;2022-08-19T13:20:19;36.80;73.50
64685;DHT22;51109;47.414;18.954;2022-08-19T13:22:46;36.70;73.10
64685;DHT22;51109;47.414;18.954;2022-08-19T13:25:14;36.50;75.40
64685;DHT22;51109;47.414;18.954;2022-08-19T13:27:49;36.50;74.30
64685;DHT22;51109;47.414;18.954;2022-08-19T13:30:17;36.40;73.80
64685;DHT22;51109;47.414;18.954;2022-08-19T13:33:02;36.20;75.30
64685;DHT22;51109;47.414;18.954;2022-08-19T13:35:39;36.00;76.90
64685;DHT22;51109;47.414;18.954;2022-08-19T13:38:05;35.70;76.70
64685;DHT22;51109;47.414;18.954;2022-08-19T13:40:32;35.60;77.50
64685;DHT22;51109;47.414;18.954;2022-08-19T13:43:03;35.60;79.00
64685;DHT22;51109;47.414;18.954;2022-08-19T13:45:32;35.70;80.10
64685;DHT22;51109;47.414;18.954;2022-08-19T13:48:06;35.70;81.00
64685;DHT22;51109;47.414;18.954;2022-08-19T13:50:44;35.40;81.10
64685;DHT22;51109;47.414;18.954;2022-08-19T13:53:11;35.10;82.30
64685;DHT22;51109;47.414;18.954;2022-08-19T13:55:38;34.90;83.30
64685;DHT22;51109;47.414;18.954;2022-08-19T13:58:05;34.70;84.10
64685;DHT22;51109;47.414;18.954;2022-08-19T14:00:36;34.20;85.30
64685;DHT22;51109;47.414;18.954;2022-08-19T14:03:03;33.80;87.40
64685;DHT22;51109;47.414;18.954;2022-08-19T14:05:30;33.70;87.40
64685;DHT22;51109;47.414;18.954;2022-08-19T14:07:57;33.70;88.60
64685;DHT22;51109;47.414;18.954;2022-08-19T14:10:23;33.50;87.90
64685;DHT22;51109;47.414;18.954;2022-08-19T14:12:55;33.50;89.10
64685;DHT22;51109;47.414;18.954;2022-08-19T14:15:22;33.60;87.60
64685;DHT22;51109;47.414;18.954;2022-08-19T14:17:49;33.50;86.10
64685;DHT22;51109;47.414;18.954;2022-08-19T14:20:15;33.40;86.40
64685;DHT22;51109;47.414;18.954;2022-08-19T14:22:42;33.10;87.20
64685;DHT22;51109;47.414;18.954;2022-08-19T14:25:11;32.90;87.00
64685;DHT22;51109;47.414;18.954;2022-08-19T14:27:38;32.80;87.00
64685;DHT22;51109;47.414;18.954;2022-08-19T14:30:07;32.80;86.60
64685;DHT22;51109;47.414;18.954;2022-08-19T14:32:33;32.70;85.70
64685;DHT22;51109;47.414;18.954;2022-08-19T14:35:00;32.60;84.10
64685;DHT22;51109;47.414;18.954;2022-08-19T14:37:26;32.70;82.60
64685;DHT22;51109;47.414;18.954;2022-08-19T14:39:52;32.80;80.80
64685;DHT22;51109;47.414;18.954;2022-08-19T14:42:19;32.90;78.50
64685;DHT22;51109;47.414;18.954;2022-08-19T14:44:45;32.80;77.10
64685;DHT22;51109;47.414;18.954;2022-08-19T14:47:11;32.60;78.50
64685;DHT22;51109;47.414;18.954;2022-08-19T14:49:37;32.40;77.50
64685;DHT22;51109;47.414;18.954;2022-08-19T14:52:05;32.10;78.30
64685;DHT22;51109;47.414;18.954;2022-08-19T14:54:31;32.00;78.90
64685;DHT22;51109;47.414;18.954;2022-08-19T14:56:57;31.80;78.80
64685;DHT22;51109;47.414;18.954;2022-08-19T14:59:23;31.80;79.30
64685;DHT22;51109;47.414;18.954;2022-08-19T15:01:49;31.80;80.00
64685;DHT22;51109;47.414;18.954;2022-08-19T15:04:16;31.70;79.40
64685;DHT22;51109;47.414;18.954;2022-08-19T15:06:41;31.60;79.20
64685;DHT22;51109;47.414;18.954;2022-08-19T15:09:08;31.60;79.30
64685;DHT22;51109;47.414;18.954;2022-08-19T15:11:35;31.50;78.00
64685;DHT22;51109;47.414;18.954;2022-08-19T15:14:02;31.40;78.70
64685;DHT22;51109;47.414;18.954;2022-08-19T15:16:31;31.40;79.10
64685;DHT22;51109;47.414;18.954;2022-08-19T15:18:58;31.30;78.40
64685;DHT22;51109;47.414;18.954;2022-08-19T15:21:26;31.30;78.80
64685;DHT22;51109;47.414;18.954;2022-08-19T15:23:54;31.20;79.00
64685;DHT22;51109;47.414;18.954;2022-08-19T15:26:20;31.20;78.90
64685;DHT22;51109;47.414;18.954;2022-08-19T15:28:46;31.10;78.80